sensor_id;sensor_type;location;lat;lon;timestamp;P1;durP1;ratioP1;P2;durP2;ratioP2
10801;SDS011;5453;50.852;7.102;2023-02-05T00:02:05;12.27;;;5.20;;
10801;SDS011;5453;50.852;7.102;2023-02-05T00:04:38;13.68;;;5.75;;
10801;SDS011;5453;50.852;7.102;2023-02-05T00:07:11;13.25;;;5.72;;
10801;SDS011;5453;50.852;7.102;2023-02-05T00:09:43;11.82;;;5.05;;
10801;SDS011;5453;50.852;7.102;2023-02-05T00:12:15;14.60;;;5.90;;
10801;SDS011;5453;50.852;7.102;2023-02-05T00:14:47;16.58;;;6.38;;
10801;SDS011;5453;50.852;7.102;2023-02-05T00:17:19;18.15;;;7.00;;
10801;SDS011;5453;50.852;7.102;2023-02-05T00:19:53;16.25;;;6.22;;
10801;SDS011;5453;50.852;7.102;2023-02-05T00:22:25;15.05;;;6.40;;
10801;SDS011;5453;50.852;7.102;2023-02-05T00:24:57;14.43;;;6.38;;
10801;SDS011;5453;50.852;7.102;2023-02-05T00:27:31;16.90;;;6.63;;
10801;SDS011;5453;50.852;7.102;2023-02-05T00:30:04;19.98;;;7.72;;
10801;SDS011;5453;50.852;7.102;2023-02-05T00:32:38;21.35;;;7.18;;
10801;SDS011;5453;50.852;7.102;2023-02-05T00:35:11;14.68;;;6.30;;
10801;SDS011;5453;50.852;7.102;2023-02-05T00:37:43;14.25;;;5.82;;
10801;SDS011;5453;50.852;7.102;2023-02-05T00:40:16;17.30;;;6.95;;
10801;SDS011;5453;50.852;7.102;2023-02-05T00:42:48;13.63;;;6.05;;
10801;SDS011;5453;50.852;7.102;2023-02-05T00:45:20;15.40;;;6.63;;
10801;SDS011;5453;50.852;7.102;2023-02-05T00:47:52;19.20;;;6.40;;
10801;SDS011;5453;50.852;7.102;2023-02-05T00:50:26;18.38;;;7.28;;
10801;SDS011;5453;50.852;7.102;2023-02-05T00:53:00;16.90;;;6.93;;
10801;SDS011;5453;50.852;7.102;2023-02-05T00:55:32;16.25;;;7.03;;
10801;SDS011;5453;50.852;7.102;2023-02-05T00:58:06;17.90;;;6.95;;
10801;SDS011;5453;50.852;7.102;2023-02-05T01:00:38;17.45;;;6.78;;
10801;SDS011;5453;50.852;7.102;2023-02-05T01:03:11;18.27;;;7.15;;
10801;SDS011;5453;50.852;7.102;2023-02-05T01:05:46;15.23;;;6.50;;
10801;SDS011;5453;50.852;7.102;2023-02-05T01:08:18;17.17;;;6.40;;
10801;SDS011;5453;50.852;7.102;2023-02-05T01:10:50;17.35;;;6.70;;
10801;SDS011;5453;50.852;7.102;2023-02-05T01:13:22;12.52;;;5.40;;
10801;SDS011;5453;50.852;7.102;2023-02-05T01:15:55;14.18;;;6.05;;
10801;SDS011;5453;50.852;7.102;2023-02-05T01:18:27;14.52;;;6.35;;
10801;SDS011;5453;50.852;7.102;2023-02-05T01:21:01;18.42;;;6.28;;
10801;SDS011;5453;50.852;7.102;2023-02-05T01:23:33;16.50;;;6.60;;
10801;SDS011;5453;50.852;7.102;2023-02-05T01:26:06;16.75;;;6.22;;
10801;SDS011;5453;50.852;7.102;2023-02-05T01:28:38;16.00;;;6.32;;
10801;SDS011;5453;50.852;7.102;2023-02-05T01:31:11;17.63;;;6.53;;
10801;SDS011;5453;50.852;7.102;2023-02-05T01:33:43;17.33;;;6.32;;
10801;SDS011;5453;50.852;7.102;2023-02-05T01:36:16;16.13;;;6.43;;
10801;SDS011;5453;50.852;7.102;2023-02-05T01:38:48;16.63;;;6.63;;
10801;SDS011;5453;50.852;7.102;2023-02-05T01:41:23;12.90;;;6.13;;
10801;SDS011;5453;50.852;7.102;2023-02-05T01:44:06;15.60;;;6.43;;
10801;SDS011;5453;50.852;7.102;2023-02-05T01:46:41;14.68;;;5.30;;
10801;SDS011;5453;50.852;7.102;2023-02-05T01:49:15;15.50;;;5.85;;
10801;SDS011;5453;50.852;7.102;2023-02-05T01:51:53;13.02;;;5.70;;
10801;SDS011;5453;50.852;7.102;2023-02-05T01:54:30;14.07;;;5.80;;
10801;SDS011;5453;50.852;7.102;2023-02-05T01:57:06;13.20;;;5.35;;
10801;SDS011;5453;50.852;7.102;2023-02-05T01:59:45;12.52;;;5.22;;
10801;SDS011;5453;50.852;7.102;2023-02-05T02:02:20;15.32;;;6.50;;
10801;SDS011;5453;50.852;7.102;2023-02-05T02:04:54;14.13;;;5.47;;
10801;SDS011;5453;50.852;7.102;2023-02-05T02:07:30;13.18;;;6.05;;
10801;SDS011;5453;50.852;7.102;2023-02-05T02:10:03;12.30;;;5.40;;
10801;SDS011;5453;50.852;7.102;2023-02-05T02:12:37;12.68;;;5.63;;
10801;SDS011;5453;50.852;7.102;2023-02-05T02:15:12;15.57;;;6.03;;
10801;SDS011;5453;50.852;7.102;2023-02-05T02:17:48;14.50;;;5.82;;
10801;SDS011;5453;50.852;7.102;2023-02-05T02:20:26;14.30;;;5.50;;
10801;SDS011;5453;50.852;7.102;2023-02-05T02:23:09;13.93;;;5.78;;
10801;SDS011;5453;50.852;7.102;2023-02-05T02:25:58;14.32;;;5.43;;
10801;SDS011;5453;50.852;7.102;2023-02-05T02:28:48;21.30;;;7.30;;
10801;SDS011;5453;50.852;7.102;2023-02-05T02:31:27;20.38;;;7.70;;
10801;SDS011;5453;50.852;7.102;2023-02-05T02:34:03;15.27;;;6.03;;
10801;SDS011;5453;50.852;7.102;2023-02-05T02:36:45;15.90;;;6.15;;
10801;SDS011;5453;50.852;7.102;2023-02-05T02:39:25;19.02;;;6.28;;
10801;SDS011;5453;50.852;7.102;2023-02-05T02:42:04;13.95;;;5.80;;
10801;SDS011;5453;50.852;7.102;2023-02-05T02:44:45;16.33;;;6.45;;
10801;SDS011;5453;50.852;7.102;2023-02-05T02:47:24;15.77;;;6.97;;
10801;SDS011;5453;50.852;7.102;2023-02-05T02:50:03;18.67;;;7.78;;
10801;SDS011;5453;50.852;7.102;2023-02-05T02:52:41;22.13;;;8.88;;
10801;SDS011;5453;50.852;7.102;2023-02-05T02:55:17;17.52;;;8.13;;
10801;SDS011;5453;50.852;7.102;2023-02-05T02:57:53;16.50;;;6.97;;
10801;SDS011;5453;50.852;7.102;2023-02-05T03:00:28;21.65;;;7.45;;
10801;SDS011;5453;50.852;7.102;2023-02-05T03:03:01;25.05;;;9.07;;
10801;SDS011;5453;50.852;7.102;2023-02-05T03:05:37;20.63;;;8.35;;
10801;SDS011;5453;50.852;7.102;2023-02-05T03:08:13;24.40;;;8.73;;
10801;SDS011;5453;50.852;7.102;2023-02-05T03:10:52;22.50;;;8.80;;
10801;SDS011;5453;50.852;7.102;2023-02-05T03:13:32;18.45;;;7.55;;
10801;SDS011;5453;50.852;7.102;2023-02-05T03:16:07;16.67;;;7.30;;
10801;SDS011;5453;50.852;7.102;2023-02-05T03:18:41;16.38;;;7.38;;
10801;SDS011;5453;50.852;7.102;2023-02-05T03:21:15;16.40;;;7.43;;
10801;SDS011;5453;50.852;7.102;2023-02-05T03:23:53;22.35;;;7.10;;
10801;SDS011;5453;50.852;7.102;2023-02-05T03:26:26;12.45;;;5.97;;
10801;SDS011;5453;50.852;7.102;2023-02-05T03:29:11;14.95;;;6.13;;
10801;SDS011;5453;50.852;7.102;2023-02-05T03:32:00;13.63;;;6.00;;
10801;SDS011;5453;50.852;7.102;2023-02-05T03:34:46;18.13;;;5.82;;
10801;SDS011;5453;50.852;7.102;2023-02-05T03:37:31;13.80;;;5.70;;
10801;SDS011;5453;50.852;7.102;2023-02-05T03:40:14;15.40;;;5.82;;
10801;SDS011;5453;50.852;7.102;2023-02-05T03:42:56;13.63;;;6.03;;
10801;SDS011;5453;50.852;7.102;2023-02-05T03:45:44;14.88;;;6.32;;
10801;SDS011;5453;50.852;7.102;2023-02-05T03:48:28;19.38;;;6.60;;
10801;SDS011;5453;50.852;7.102;2023-02-05T03:51:22;18.95;;;6.53;;
10801;SDS011;5453;50.852;7.102;2023-02-05T03:54:06;14.90;;;6.43;;
10801;SDS011;5453;50.852;7.102;2023-02-05T03:56:45;16.20;;;6.22;;
10801;SDS011;5453;50.852;7.102;2023-02-05T03:59:25;15.10;;;6.38;;
10801;SDS011;5453;50.852;7.102;2023-02-05T04:01:59;16.10;;;6.47;;
10801;SDS011;5453;50.852;7.102;2023-02-05T04:04:38;19.50;;;6.68;;
10801;SDS011;5453;50.852;7.102;2023-02-05T04:07:12;14.20;;;6.05;;
10801;SDS011;5453;50.852;7.102;2023-02-05T04:09:45;19.40;;;7.47;;
10801;SDS011;5453;50.852;7.102;2023-02-05T04:12:18;17.17;;;7.03;;
10801;SDS011;5453;50.852;7.102;2023-02-05T04:14:51;20.15;;;7.32;;
10801;SDS011;5453;50.852;7.102;2023-02-05T04:17:24;20.70;;;8.40;;
10801;SDS011;5453;50.852;7.102;2023-02-05T04:19:57;18.95;;;7.50;;
10801;SDS011;5453;50.852;7.102;2023-02-05T04:22:30;15.05;;;6.10;;
10801;SDS011;5453;50.852;7.102;2023-02-05T04:25:03;14.60;;;6.18;;
10801;SDS011;5453;50.852;7.102;2023-02-05T04:27:38;17.42;;;6.88;;
10801;SDS011;5453;50.852;7.102;2023-02-05T04:30:11;17.27;;;7.47;;
10801;SDS011;5453;50.852;7.102;2023-02-05T04:32:47;17.35;;;7.43;;
10801;SDS011;5453;50.852;7.102;2023-02-05T04:35:22;18.33;;;7.20;;
10801;SDS011;5453;50.852;7.102;2023-02-05T04:37:55;22.70;;;7.95;;
10801;SDS011;5453;50.852;7.102;2023-02-05T04:40:28;19.25;;;8.02;;
10801;SDS011;5453;50.852;7.102;2023-02-05T04:43:00;21.13;;;7.47;;
10801;SDS011;5453;50.852;7.102;2023-02-05T04:45:34;20.38;;;7.75;;
10801;SDS011;5453;50.852;7.102;2023-02-05T04:48:06;15.80;;;7.10;;
10801;SDS011;5453;50.852;7.102;2023-02-05T04:50:40;17.83;;;7.30;;
10801;SDS011;5453;50.852;7.102;2023-02-05T04:53:13;19.20;;;7.70;;
10801;SDS011;5453;50.852;7.102;2023-02-05T04:55:45;23.23;;;8.48;;
10801;SDS011;5453;50.852;7.102;2023-02-05T04:58:17;18.13;;;7.47;;
10801;SDS011;5453;50.852;7.102;2023-02-05T05:00:50;16.48;;;6.97;;
10801;SDS011;5453;50.852;7.102;2023-02-05T05:03:22;14.48;;;6.22;;
10801;SDS011;5453;50.852;7.102;2023-02-05T05:05:56;17.45;;;7.78;;
10801;SDS011;5453;50.852;7.102;2023-02-05T05:08:34;21.58;;;8.80;;
10801;SDS011;5453;50.852;7.102;2023-02-05T05:11:09;22.23;;;9.63;;
10801;SDS011;5453;50.852;7.102;2023-02-05T05:13:43;22.08;;;9.73;;
10801;SDS011;5453;50.852;7.102;2023-02-05T05:16:17;23.63;;;8.88;;
10801;SDS011;5453;50.852;7.102;2023-02-05T05:18:50;18.67;;;8.80;;
10801;SDS011;5453;50.852;7.102;2023-02-05T05:21:24;19.88;;;7.32;;
10801;SDS011;5453;50.852;7.102;2023-02-05T05:23:56;18.00;;;7.97;;
10801;SDS011;5453;50.852;7.102;2023-02-05T05:26:28;16.55;;;6.82;;
10801;SDS011;5453;50.852;7.102;2023-02-05T05:29:00;19.55;;;7.55;;
10801;SDS011;5453;50.852;7.102;2023-02-05T05:31:33;19.35;;;6.80;;
10801;SDS011;5453;50.852;7.102;2023-02-05T05:34:05;15.73;;;6.40;;
10801;SDS011;5453;50.852;7.102;2023-02-05T05:36:40;17.45;;;6.47;;
10801;SDS011;5453;50.852;7.102;2023-02-05T05:39:13;16.20;;;5.95;;
10801;SDS011;5453;50.852;7.102;2023-02-05T05:42:03;12.68;;;5.82;;
10801;SDS011;5453;50.852;7.102;2023-02-05T05:44:53;16.35;;;6.10;;
10801;SDS011;5453;50.852;7.102;2023-02-05T05:47:26;18.27;;;6.28;;
10801;SDS011;5453;50.852;7.102;2023-02-05T05:49:58;14.27;;;5.38;;
10801;SDS011;5453;50.852;7.102;2023-02-05T05:55:07;14.80;;;5.07;;
10801;SDS011;5453;50.852;7.102;2023-02-05T05:57:40;11.20;;;5.60;;
10801;SDS011;5453;50.852;7.102;2023-02-05T06:00:13;10.75;;;4.97;;
10801;SDS011;5453;50.852;7.102;2023-02-05T06:02:45;13.50;;;5.10;;
10801;SDS011;5453;50.852;7.102;2023-02-05T06:05:18;14.43;;;5.53;;
10801;SDS011;5453;50.852;7.102;2023-02-05T06:07:51;13.20;;;5.78;;
10801;SDS011;5453;50.852;7.102;2023-02-05T06:10:23;10.60;;;5.18;;
10801;SDS011;5453;50.852;7.102;2023-02-05T06:12:56;11.45;;;4.97;;
10801;SDS011;5453;50.852;7.102;2023-02-05T06:15:28;12.80;;;5.22;;
10801;SDS011;5453;50.852;7.102;2023-02-05T06:18:00;10.88;;;4.53;;
10801;SDS011;5453;50.852;7.102;2023-02-05T06:20:33;13.15;;;4.32;;
10801;SDS011;5453;50.852;7.102;2023-02-05T06:23:07;10.93;;;5.05;;
10801;SDS011;5453;50.852;7.102;2023-02-05T06:25:40;10.73;;;4.15;;
10801;SDS011;5453;50.852;7.102;2023-02-05T06:28:12;10.85;;;4.38;;
10801;SDS011;5453;50.852;7.102;2023-02-05T06:30:46;11.82;;;4.53;;
10801;SDS011;5453;50.852;7.102;2023-02-05T06:33:18;11.00;;;4.43;;
10801;SDS011;5453;50.852;7.102;2023-02-05T06:35:50;9.63;;;4.38;;
10801;SDS011;5453;50.852;7.102;2023-02-05T06:38:24;11.65;;;4.72;;
10801;SDS011;5453;50.852;7.102;2023-02-05T06:40:56;11.45;;;4.43;;
10801;SDS011;5453;50.852;7.102;2023-02-05T06:43:28;9.45;;;4.28;;
10801;SDS011;5453;50.852;7.102;2023-02-05T06:46:00;10.95;;;4.10;;
10801;SDS011;5453;50.852;7.102;2023-02-05T06:48:33;11.13;;;4.22;;
10801;SDS011;5453;50.852;7.102;2023-02-05T06:51:05;9.60;;;4.00;;
10801;SDS011;5453;50.852;7.102;2023-02-05T06:53:41;9.98;;;4.40;;
10801;SDS011;5453;50.852;7.102;2023-02-05T06:56:13;11.38;;;4.53;;
10801;SDS011;5453;50.852;7.102;2023-02-05T06:58:45;10.18;;;4.25;;
10801;SDS011;5453;50.852;7.102;2023-02-05T07:01:18;9.07;;;3.90;;
10801;SDS011;5453;50.852;7.102;2023-02-05T07:03:50;9.55;;;4.32;;
10801;SDS011;5453;50.852;7.102;2023-02-05T07:06:25;9.95;;;4.10;;
10801;SDS011;5453;50.852;7.102;2023-02-05T07:08:59;10.90;;;4.65;;
10801;SDS011;5453;50.852;7.102;2023-02-05T07:11:31;10.63;;;4.38;;
10801;SDS011;5453;50.852;7.102;2023-02-05T07:14:03;8.88;;;3.97;;
10801;SDS011;5453;50.852;7.102;2023-02-05T07:16:35;10.27;;;4.15;;
10801;SDS011;5453;50.852;7.102;2023-02-05T07:19:08;10.93;;;4.35;;
10801;SDS011;5453;50.852;7.102;2023-02-05T07:21:40;10.90;;;4.88;;
10801;SDS011;5453;50.852;7.102;2023-02-05T07:24:14;10.52;;;4.28;;
10801;SDS011;5453;50.852;7.102;2023-02-05T07:26:46;12.57;;;4.72;;
10801;SDS011;5453;50.852;7.102;2023-02-05T07:29:18;10.15;;;4.38;;
10801;SDS011;5453;50.852;7.102;2023-02-05T07:31:51;14.15;;;5.53;;
10801;SDS011;5453;50.852;7.102;2023-02-05T07:34:23;13.10;;;5.30;;
10801;SDS011;5453;50.852;7.102;2023-02-05T07:36:55;14.00;;;5.30;;
10801;SDS011;5453;50.852;7.102;2023-02-05T07:39:29;15.18;;;6.03;;
10801;SDS011;5453;50.852;7.102;2023-02-05T07:42:02;19.33;;;6.60;;
10801;SDS011;5453;50.852;7.102;2023-02-05T07:44:44;19.15;;;6.85;;
10801;SDS011;5453;50.852;7.102;2023-02-05T07:47:16;26.95;;;9.27;;
10801;SDS011;5453;50.852;7.102;2023-02-05T07:49:48;24.33;;;9.27;;
10801;SDS011;5453;50.852;7.102;2023-02-05T07:52:20;25.98;;;9.05;;
10801;SDS011;5453;50.852;7.102;2023-02-05T07:54:54;27.70;;;9.90;;
10801;SDS011;5453;50.852;7.102;2023-02-05T07:57:26;33.90;;;11.52;;
10801;SDS011;5453;50.852;7.102;2023-02-05T07:59:58;30.98;;;10.73;;
10801;SDS011;5453;50.852;7.102;2023-02-05T08:02:30;34.60;;;11.18;;
10801;SDS011;5453;50.852;7.102;2023-02-05T08:05:03;31.08;;;11.55;;
10801;SDS011;5453;50.852;7.102;2023-02-05T08:07:36;28.42;;;9.98;;
10801;SDS011;5453;50.852;7.102;2023-02-05T08:10:10;37.60;;;12.32;;
10801;SDS011;5453;50.852;7.102;2023-02-05T08:12:44;30.27;;;10.68;;
10801;SDS011;5453;50.852;7.102;2023-02-05T08:15:17;30.65;;;10.15;;
10801;SDS011;5453;50.852;7.102;2023-02-05T08:17:49;32.92;;;11.50;;
10801;SDS011;5453;50.852;7.102;2023-02-05T08:20:21;29.17;;;10.55;;
10801;SDS011;5453;50.852;7.102;2023-02-05T08:22:53;29.17;;;10.70;;
10801;SDS011;5453;50.852;7.102;2023-02-05T08:25:26;29.50;;;10.07;;
10801;SDS011;5453;50.852;7.102;2023-02-05T08:27:58;29.48;;;10.25;;
10801;SDS011;5453;50.852;7.102;2023-02-05T08:30:30;28.40;;;10.52;;
10801;SDS011;5453;50.852;7.102;2023-02-05T08:33:03;29.67;;;10.48;;
10801;SDS011;5453;50.852;7.102;2023-02-05T08:35:35;29.75;;;10.30;;
10801;SDS011;5453;50.852;7.102;2023-02-05T08:38:07;28.73;;;10.60;;
10801;SDS011;5453;50.852;7.102;2023-02-05T08:40:41;25.38;;;8.43;;
10801;SDS011;5453;50.852;7.102;2023-02-05T08:43:13;24.48;;;8.20;;
10801;SDS011;5453;50.852;7.102;2023-02-05T08:45:45;20.67;;;7.75;;
10801;SDS011;5453;50.852;7.102;2023-02-05T08:48:18;26.58;;;9.50;;
10801;SDS011;5453;50.852;7.102;2023-02-05T08:50:50;19.90;;;8.30;;
10801;SDS011;5453;50.852;7.102;2023-02-05T08:53:22;19.33;;;7.05;;
10801;SDS011;5453;50.852;7.102;2023-02-05T08:55:55;21.23;;;7.88;;
10801;SDS011;5453;50.852;7.102;2023-02-05T08:58:29;24.05;;;8.90;;
10801;SDS011;5453;50.852;7.102;2023-02-05T09:01:02;21.38;;;8.50;;
10801;SDS011;5453;50.852;7.102;2023-02-05T09:03:36;20.45;;;7.95;;
10801;SDS011;5453;50.852;7.102;2023-02-05T09:06:10;23.73;;;8.73;;
10801;SDS011;5453;50.852;7.102;2023-02-05T09:08:45;22.40;;;9.07;;
10801;SDS011;5453;50.852;7.102;2023-02-05T09:11:20;22.30;;;8.82;;
10801;SDS011;5453;50.852;7.102;2023-02-05T09:13:55;27.52;;;10.10;;
10801;SDS011;5453;50.852;7.102;2023-02-05T09:16:28;23.92;;;9.55;;
10801;SDS011;5453;50.852;7.102;2023-02-05T09:19:00;24.95;;;9.35;;
10801;SDS011;5453;50.852;7.102;2023-02-05T09:21:32;21.35;;;9.20;;
10801;SDS011;5453;50.852;7.102;2023-02-05T09:24:04;19.55;;;8.82;;
10801;SDS011;5453;50.852;7.102;2023-02-05T09:26:38;20.65;;;8.48;;
10801;SDS011;5453;50.852;7.102;2023-02-05T09:29:10;16.90;;;7.30;;
10801;SDS011;5453;50.852;7.102;2023-02-05T09:31:42;18.00;;;6.75;;
10801;SDS011;5453;50.852;7.102;2023-02-05T09:34:14;14.07;;;5.82;;
10801;SDS011;5453;50.852;7.102;2023-02-05T09:36:47;13.40;;;5.57;;
10801;SDS011;5453;50.852;7.102;2023-02-05T09:39:19;10.45;;;4.68;;
10801;SDS011;5453;50.852;7.102;2023-02-05T09:41:54;11.55;;;4.97;;
10801;SDS011;5453;50.852;7.102;2023-02-05T09:44:44;9.93;;;4.18;;
10801;SDS011;5453;50.852;7.102;2023-02-05T09:47:29;10.45;;;4.15;;
10801;SDS011;5453;50.852;7.102;2023-02-05T09:50:10;7.13;;;3.20;;
10801;SDS011;5453;50.852;7.102;2023-02-05T09:52:47;7.60;;;3.72;;
10801;SDS011;5453;50.852;7.102;2023-02-05T09:55:21;7.15;;;3.85;;
10801;SDS011;5453;50.852;7.102;2023-02-05T09:58:00;7.57;;;3.10;;
10801;SDS011;5453;50.852;7.102;2023-02-05T10:00:43;6.18;;;3.15;;
10801;SDS011;5453;50.852;7.102;2023-02-05T10:03:20;7.20;;;3.28;;
10801;SDS011;5453;50.852;7.102;2023-02-05T10:06:03;7.03;;;3.42;;
10801;SDS011;5453;50.852;7.102;2023-02-05T10:08:55;7.05;;;3.50;;
10801;SDS011;5453;50.852;7.102;2023-02-05T10:11:39;6.75;;;2.92;;
10801;SDS011;5453;50.852;7.102;2023-02-05T10:14:18;5.65;;;3.08;;
10801;SDS011;5453;50.852;7.102;2023-02-05T10:17:07;5.45;;;2.70;;
10801;SDS011;5453;50.852;7.102;2023-02-05T10:20:02;5.43;;;2.78;;
10801;SDS011;5453;50.852;7.102;2023-02-05T10:22:53;4.82;;;2.92;;
10801;SDS011;5453;50.852;7.102;2023-02-05T10:25:50;5.68;;;2.42;;
10801;SDS011;5453;50.852;7.102;2023-02-05T10:28:45;7.45;;;2.70;;
10801;SDS011;5453;50.852;7.102;2023-02-05T10:31:41;6.47;;;3.17;;
10801;SDS011;5453;50.852;7.102;2023-02-05T10:34:18;5.50;;;3.08;;
10801;SDS011;5453;50.852;7.102;2023-02-05T10:37:08;7.07;;;3.80;;
10801;SDS011;5453;50.852;7.102;2023-02-05T10:39:45;6.68;;;2.92;;
10801;SDS011;5453;50.852;7.102;2023-02-05T10:42:23;3.80;;;2.38;;
10801;SDS011;5453;50.852;7.102;2023-02-05T10:45:00;5.55;;;2.72;;
10801;SDS011;5453;50.852;7.102;2023-02-05T10:47:45;7.15;;;3.10;;
10801;SDS011;5453;50.852;7.102;2023-02-05T10:50:42;8.18;;;3.17;;
10801;SDS011;5453;50.852;7.102;2023-02-05T10:53:21;6.10;;;2.97;;
10801;SDS011;5453;50.852;7.102;2023-02-05T10:55:55;7.63;;;2.97;;
10801;SDS011;5453;50.852;7.102;2023-02-05T10:58:39;10.45;;;2.88;;
10801;SDS011;5453;50.852;7.102;2023-02-05T11:01:17;6.85;;;2.88;;
10801;SDS011;5453;50.852;7.102;2023-02-05T11:03:53;5.63;;;2.65;;
10801;SDS011;5453;50.852;7.102;2023-02-05T11:06:30;7.45;;;2.42;;
10801;SDS011;5453;50.852;7.102;2023-02-05T11:09:27;5.28;;;1.77;;
10801;SDS011;5453;50.852;7.102;2023-02-05T11:12:03;10.10;;;3.22;;
10801;SDS011;5453;50.852;7.102;2023-02-05T11:14:45;8.15;;;2.88;;
10801;SDS011;5453;50.852;7.102;2023-02-05T11:17:29;7.47;;;2.40;;
10801;SDS011;5453;50.852;7.102;2023-02-05T11:20:06;4.93;;;2.13;;
10801;SDS011;5453;50.852;7.102;2023-02-05T11:23:04;6.68;;;2.13;;
10801;SDS011;5453;50.852;7.102;2023-02-05T11:25:48;4.50;;;1.73;;
10801;SDS011;5453;50.852;7.102;2023-02-05T11:28:22;3.35;;;1.67;;
10801;SDS011;5453;50.852;7.102;2023-02-05T11:33:52;5.15;;;1.73;;
10801;SDS011;5453;50.852;7.102;2023-02-05T11:36:48;6.63;;;1.90;;
10801;SDS011;5453;50.852;7.102;2023-02-05T11:39:26;3.22;;;1.50;;
10801;SDS011;5453;50.852;7.102;2023-02-05T11:42:08;6.05;;;2.03;;
10801;SDS011;5453;50.852;7.102;2023-02-05T11:44:48;4.40;;;1.52;;
10801;SDS011;5453;50.852;7.102;2023-02-05T11:47:24;6.78;;;1.75;;
10801;SDS011;5453;50.852;7.102;2023-02-05T11:50:00;3.55;;;1.42;;
10801;SDS011;5453;50.852;7.102;2023-02-05T11:55:21;7.50;;;2.25;;
10801;SDS011;5453;50.852;7.102;2023-02-05T11:57:59;3.63;;;2.10;;
10801;SDS011;5453;50.852;7.102;2023-02-05T12:00:33;4.40;;;2.00;;
10801;SDS011;5453;50.852;7.102;2023-02-05T12:03:09;6.20;;;1.75;;
10801;SDS011;5453;50.852;7.102;2023-02-05T12:05:49;7.15;;;2.20;;
10801;SDS011;5453;50.852;7.102;2023-02-05T12:08:31;6.90;;;1.92;;
10801;SDS011;5453;50.852;7.102;2023-02-05T12:11:15;4.95;;;1.90;;
10801;SDS011;5453;50.852;7.102;2023-02-05T12:14:22;7.30;;;2.20;;
10801;SDS011;5453;50.852;7.102;2023-02-05T12:17:06;4.53;;;2.05;;
10801;SDS011;5453;50.852;7.102;2023-02-05T12:20:09;6.43;;;2.15;;
10801;SDS011;5453;50.852;7.102;2023-02-05T12:22:55;5.50;;;2.35;;
10801;SDS011;5453;50.852;7.102;2023-02-05T12:26:01;8.82;;;2.72;;
10801;SDS011;5453;50.852;7.102;2023-02-05T12:28:59;4.38;;;2.10;;
10801;SDS011;5453;50.852;7.102;2023-02-05T12:31:47;8.05;;;2.78;;
10801;SDS011;5453;50.852;7.102;2023-02-05T12:34:32;4.18;;;1.98;;
10801;SDS011;5453;50.852;7.102;2023-02-05T12:37:27;7.22;;;2.40;;
10801;SDS011;5453;50.852;7.102;2023-02-05T12:40:12;5.72;;;2.67;;
10801;SDS011;5453;50.852;7.102;2023-02-05T12:43:04;8.32;;;2.47;;
10801;SDS011;5453;50.852;7.102;2023-02-05T12:45:54;7.05;;;2.95;;
10801;SDS011;5453;50.852;7.102;2023-02-05T12:48:47;9.48;;;3.00;;
10801;SDS011;5453;50.852;7.102;2023-02-05T12:51:39;7.13;;;3.03;;
10801;SDS011;5453;50.852;7.102;2023-02-05T12:54:29;10.45;;;3.47;;
10801;SDS011;5453;50.852;7.102;2023-02-05T12:57:15;8.30;;;2.83;;
10801;SDS011;5453;50.852;7.102;2023-02-05T12:59:52;7.47;;;3.10;;
10801;SDS011;5453;50.852;7.102;2023-02-05T13:02:31;6.57;;;3.03;;
10801;SDS011;5453;50.852;7.102;2023-02-05T13:05:12;6.70;;;2.92;;
10801;SDS011;5453;50.852;7.102;2023-02-05T13:07:52;9.23;;;3.42;;
10801;SDS011;5453;50.852;7.102;2023-02-05T13:13:10;5.72;;;2.70;;
10801;SDS011;5453;50.852;7.102;2023-02-05T13:15:50;8.25;;;2.67;;
10801;SDS011;5453;50.852;7.102;2023-02-05T13:18:31;8.48;;;3.10;;
10801;SDS011;5453;50.852;7.102;2023-02-05T13:21:09;8.45;;;3.03;;
10801;SDS011;5453;50.852;7.102;2023-02-05T13:24:11;5.38;;;2.05;;
10801;SDS011;5453;50.852;7.102;2023-02-05T13:27:20;5.35;;;2.83;;
10801;SDS011;5453;50.852;7.102;2023-02-05T13:30:15;5.45;;;2.00;;
10801;SDS011;5453;50.852;7.102;2023-02-05T13:32:54;4.65;;;2.65;;
10801;SDS011;5453;50.852;7.102;2023-02-05T13:35:32;5.35;;;2.28;;
10801;SDS011;5453;50.852;7.102;2023-02-05T13:38:23;4.47;;;2.47;;
10801;SDS011;5453;50.852;7.102;2023-02-05T13:41:24;6.00;;;2.40;;
10801;SDS011;5453;50.852;7.102;2023-02-05T13:54:10;4.97;;;2.10;;
10801;SDS011;5453;50.852;7.102;2023-02-05T13:57:11;4.75;;;2.20;;
10801;SDS011;5453;50.852;7.102;2023-02-05T14:00:32;5.68;;;2.15;;
10801;SDS011;5453;50.852;7.102;2023-02-05T14:03:07;5.38;;;2.15;;
10801;SDS011;5453;50.852;7.102;2023-02-05T14:05:54;6.57;;;2.30;;
10801;SDS011;5453;50.852;7.102;2023-02-05T14:08:27;7.03;;;2.67;;
10801;SDS011;5453;50.852;7.102;2023-02-05T14:11:07;6.03;;;2.42;;
10801;SDS011;5453;50.852;7.102;2023-02-05T14:13:40;3.60;;;2.13;;
10801;SDS011;5453;50.852;7.102;2023-02-05T14:16:31;4.20;;;2.47;;
10801;SDS011;5453;50.852;7.102;2023-02-05T14:19:17;4.18;;;2.17;;
10801;SDS011;5453;50.852;7.102;2023-02-05T14:24:39;4.53;;;2.15;;
10801;SDS011;5453;50.852;7.102;2023-02-05T14:33:36;3.38;;;2.30;;
10801;SDS011;5453;50.852;7.102;2023-02-05T14:36:31;5.10;;;2.33;;
10801;SDS011;5453;50.852;7.102;2023-02-05T14:39:17;4.25;;;2.45;;
10801;SDS011;5453;50.852;7.102;2023-02-05T14:41:52;3.45;;;2.08;;
10801;SDS011;5453;50.852;7.102;2023-02-05T14:44:29;4.65;;;2.05;;
10801;SDS011;5453;50.852;7.102;2023-02-05T14:47:04;3.63;;;2.10;;
10801;SDS011;5453;50.852;7.102;2023-02-05T14:49:39;6.03;;;2.33;;
10801;SDS011;5453;50.852;7.102;2023-02-05T14:55:07;5.50;;;2.03;;
10801;SDS011;5453;50.852;7.102;2023-02-05T14:57:50;7.00;;;2.67;;
10801;SDS011;5453;50.852;7.102;2023-02-05T15:00:30;4.97;;;2.38;;
10801;SDS011;5453;50.852;7.102;2023-02-05T15:03:17;4.78;;;2.50;;
10801;SDS011;5453;50.852;7.102;2023-02-05T15:05:56;6.50;;;1.95;;
10801;SDS011;5453;50.852;7.102;2023-02-05T15:08:38;7.53;;;2.58;;
10801;SDS011;5453;50.852;7.102;2023-02-05T15:11:23;4.45;;;2.38;;
10801;SDS011;5453;50.852;7.102;2023-02-05T15:20:25;3.88;;;1.88;;
10801;SDS011;5453;50.852;7.102;2023-02-05T15:23:12;4.88;;;2.00;;
10801;SDS011;5453;50.852;7.102;2023-02-05T15:25:54;4.22;;;2.00;;
10801;SDS011;5453;50.852;7.102;2023-02-05T15:28:32;5.70;;;2.15;;
10801;SDS011;5453;50.852;7.102;2023-02-05T15:31:16;5.43;;;1.98;;
10801;SDS011;5453;50.852;7.102;2023-02-05T15:33:58;2.70;;;1.52;;
10801;SDS011;5453;50.852;7.102;2023-02-05T15:36:52;4.03;;;1.58;;
10801;SDS011;5453;50.852;7.102;2023-02-05T15:39:30;5.25;;;2.10;;
10801;SDS011;5453;50.852;7.102;2023-02-05T15:42:14;5.90;;;2.30;;
10801;SDS011;5453;50.852;7.102;2023-02-05T15:44:49;5.28;;;2.10;;
10801;SDS011;5453;50.852;7.102;2023-02-05T15:47:22;7.10;;;2.30;;
10801;SDS011;5453;50.852;7.102;2023-02-05T15:49:58;6.10;;;2.42;;
10801;SDS011;5453;50.852;7.102;2023-02-05T15:52:32;6.53;;;1.92;;
10801;SDS011;5453;50.852;7.102;2023-02-05T15:55:07;4.63;;;1.48;;
10801;SDS011;5453;50.852;7.102;2023-02-05T15:57:47;3.78;;;1.35;;
10801;SDS011;5453;50.852;7.102;2023-02-05T16:00:21;4.28;;;1.85;;
10801;SDS011;5453;50.852;7.102;2023-02-05T16:02:57;3.67;;;1.80;;
10801;SDS011;5453;50.852;7.102;2023-02-05T16:05:31;4.38;;;2.17;;
10801;SDS011;5453;50.852;7.102;2023-02-05T16:08:13;4.55;;;1.98;;
10801;SDS011;5453;50.852;7.102;2023-02-05T16:10:51;5.63;;;1.85;;
10801;SDS011;5453;50.852;7.102;2023-02-05T16:13:28;3.65;;;1.88;;
10801;SDS011;5453;50.852;7.102;2023-02-05T16:16:01;4.00;;;1.95;;
10801;SDS011;5453;50.852;7.102;2023-02-05T16:18:39;3.70;;;2.20;;
10801;SDS011;5453;50.852;7.102;2023-02-05T16:21:17;4.30;;;1.67;;
10801;SDS011;5453;50.852;7.102;2023-02-05T16:23:55;5.38;;;1.92;;
10801;SDS011;5453;50.852;7.102;2023-02-05T16:26:32;3.47;;;1.77;;
10801;SDS011;5453;50.852;7.102;2023-02-05T16:29:14;4.75;;;1.70;;
10801;SDS011;5453;50.852;7.102;2023-02-05T16:31:55;3.58;;;2.03;;
10801;SDS011;5453;50.852;7.102;2023-02-05T16:34:30;5.57;;;2.45;;
10801;SDS011;5453;50.852;7.102;2023-02-05T16:37:11;5.38;;;1.75;;